Artesia Wells, TX

5:26 AM CST on December 27, 2014 (GMT -0600)
Huajuco Road | Change Station
CLOSE
Current Station
Personal Weather Station
Location: Cotulla, TX
Elevation: 394 ft
Nearby Weather Stations

Elev 394 ft 28.19 °N, 99.01 °W | Updated 23 seconds ago

Overcast
Overcast
58.8 °F
Feels Like 58.8 °F
N
2.3
Wind Variable Wind from West
Gusts 4.0 mph

Today
High -- | Low -- °F
--% Chance of Precip.
Yesterday
High -- | Low -- °F
Precip. -- in
7:27 AM 5:49 PM
Waxing Crescent, 35% visible
Pressure 29.93 in
Visibility 7.0 miles
Clouds Mostly Cloudy 1000 ft
Overcast 1400 ft
Dew Point 58 °F
Humidity 98%
Rainfall 0.00 in
Snow Depth Not available.
UV 0 out of 12
Pollen 10.50 out of 12
Air Quality Not available.
Flu Activity Not available.
METAR KPEZ 271115Z AUTO 00000KT 7SM BKN010 OVC014 18/17 A2993 RMK AO2 T01820171

More Conditions Fewer Conditions

Pressure 29.93 in
Visibility 7.0 miles
Clouds Mostly Cloudy 1000 ft
Overcast 1400 ft
Dew Point 58 °F
Humidity 98%
Rainfall 0.00 in
Snow Depth Not available.
UV 0 out of 12
Pollen 10.50 out of 12
Air Quality Not available.
Flu Activity Not available.
METAR KPEZ 271115Z AUTO 00000KT 7SM BKN010 OVC014 18/17 A2993 RMK AO2 T01820171

More Conditions Fewer Conditions

10-Day Weather Forecast

Almanac

Astronomy

Dec. 27, 2014 Rise Set
Actual Time
Civil Twilight
Nautical Twilight
Astronomical Twilight
Moon
Length of Visible Light
Length of Day
Tomorrow will be .
, % of the Moon is Illuminated

Today's Extremes

State Highs State Lows

Community

WunderPhotos

Upload Photos

1,780,881 photos uploaded!

WunderBlogs® & News

Nearby

Air Quality

  Air Quality AQ Index Pollutant
Not available.

Snow Depth

Station Depth Elevation

Earthquake Activity

City Distance Mag. Time & Date
Minimum magnitude displayed is 2.5.

Coastal Water Temperatures

Place Temperature

Nearby Weather Stations